Ancona / Falconara Airport LIPY

Flugplatz Daten

Name: Ancona / Falconara Airport

Ident: LIPY

Lat: 43,61629868

Long: 13,36229992

Platzhöhe: 49 ft

IataCode: AOI

City: Ancona

Homepage: http://www.aeroportomarche.com/index.php?lang=english

Metar

2022/08/13 18:20
LIPY 131820Z AUTO 34009KT 9999 BKN180/// 24/14 Q1011

Taf

2022/08/13 18:22
TAF LIPY 131700Z 1318/1418 32008KT 9999 SCT035
BECMG 1410/1412 07010KT
BECMG 1416/1418 14008KT
Gewünschte Webcam nicht vorhanden? Dann fügen Sie eine hinzu. Sie wird dann so schnell wie möglich freigeschaltet
Url: Title: